createdAt,value
2022-10-14T00:01:31.579Z,2.50
2022-10-14T00:06:51.636Z,2.93
2022-10-14T00:12:11.703Z,2.30
2022-10-14T00:17:31.924Z,2.70
2022-10-14T00:22:51.980Z,2.93
2022-10-14T00:28:12.104Z,2.30
2022-10-14T00:33:32.260Z,2.87
2022-10-14T00:38:52.565Z,2.10
2022-10-14T00:44:12.644Z,2.50
2022-10-14T00:49:32.877Z,2.43
2022-10-14T00:54:52.983Z,2.77
2022-10-14T01:00:13.283Z,2.30
2022-10-14T01:05:33.440Z,2.30
2022-10-14T01:10:54.508Z,2.63
2022-10-14T01:16:14.511Z,1.90
2022-10-14T01:21:34.717Z,2.40
2022-10-14T01:26:54.769Z,2.20
2022-10-14T01:32:14.853Z,2.63
2022-10-14T01:37:34.966Z,2.07
2022-10-14T01:42:55.054Z,2.37
2022-10-14T01:48:15.528Z,2.40
2022-10-14T01:53:36.543Z,2.47
2022-10-14T01:58:56.662Z,1.93
2022-10-14T02:04:16.884Z,2.10
2022-10-14T02:09:36.937Z,2.40
2022-10-14T02:14:57.121Z,2.30
2022-10-14T02:20:17.226Z,2.33
2022-10-14T02:25:37.436Z,2.27
2022-10-14T02:30:57.551Z,2.27
2022-10-14T02:36:17.790Z,2.40
2022-10-14T02:41:38.032Z,2.30
2022-10-14T02:46:58.190Z,1.97
2022-10-14T02:52:18.371Z,2.00
2022-10-14T02:57:38.411Z,2.10
2022-10-14T03:02:58.535Z,2.20
2022-10-14T03:08:18.744Z,2.33
2022-10-14T03:13:38.875Z,2.23
2022-10-14T03:18:59.168Z,1.97
2022-10-14T03:24:19.344Z,1.90
2022-10-14T03:29:39.356Z,2.23
2022-10-14T03:34:59.474Z,2.47
2022-10-14T03:40:19.570Z,1.93
2022-10-14T03:45:39.699Z,2.00
2022-10-14T03:50:59.840Z,1.63
2022-10-14T03:56:20.069Z,2.33
2022-10-14T04:01:40.120Z,2.50
2022-10-14T04:07:00.327Z,1.90
2022-10-14T04:12:20.617Z,2.10
2022-10-14T04:17:40.520Z,2.73
2022-10-14T04:23:00.673Z,1.93
2022-10-14T04:28:20.909Z,2.20
2022-10-14T04:33:40.919Z,1.80
2022-10-14T04:39:01.077Z,1.87
2022-10-14T04:44:21.244Z,2.20
2022-10-14T04:49:41.489Z,1.97
2022-10-14T04:55:01.696Z,1.77
2022-10-14T05:00:21.927Z,1.90
2022-10-14T05:05:41.923Z,2.00
2022-10-14T05:11:02.026Z,2.17
2022-10-14T05:16:22.099Z,1.90
2022-10-14T05:21:42.245Z,1.70
2022-10-14T05:27:02.504Z,1.80
2022-10-14T05:32:22.949Z,1.90
2022-10-14T05:37:43.132Z,2.23
2022-10-14T05:43:03.188Z,1.90
2022-10-14T05:48:23.360Z,2.00
2022-10-14T05:53:43.490Z,2.10
2022-10-14T05:59:03.566Z,2.03
2022-10-14T06:04:23.770Z,1.60
2022-10-14T06:09:43.949Z,1.90
2022-10-14T06:15:04.161Z,2.07
2022-10-14T06:20:24.134Z,2.07
2022-10-14T06:25:44.412Z,1.80
2022-10-14T06:31:04.536Z,1.70
2022-10-14T06:36:24.697Z,1.63
2022-10-14T06:41:44.874Z,1.70
2022-10-14T06:47:05.725Z,2.10
2022-10-14T06:52:25.893Z,1.70
2022-10-14T06:57:46.171Z,1.90
2022-10-14T07:03:06.212Z,2.10
2022-10-14T07:08:26.320Z,2.00
2022-10-14T07:13:46.394Z,1.60
2022-10-14T07:19:06.531Z,2.07
2022-10-14T07:24:26.673Z,1.73
2022-10-14T07:29:46.920Z,1.60
2022-10-14T07:35:06.932Z,1.90
2022-10-14T07:40:27.207Z,1.70
2022-10-14T07:45:47.334Z,1.60
2022-10-14T07:51:07.542Z,1.93
2022-10-14T07:56:28.782Z,1.90
2022-10-14T08:01:48.858Z,2.43
2022-10-14T08:07:08.970Z,1.60
2022-10-14T08:12:29.261Z,1.60
2022-10-14T08:17:49.296Z,1.70
2022-10-14T08:23:09.492Z,1.67
2022-10-14T08:28:29.747Z,1.50
2022-10-14T08:33:49.915Z,1.73
2022-10-14T08:44:34.864Z,1.60
2022-10-14T08:49:55.005Z,1.57
2022-10-14T08:55:15.199Z,1.50
2022-10-14T09:00:35.347Z,1.70
2022-10-14T09:05:55.578Z,1.83
2022-10-14T09:11:15.644Z,1.70
2022-10-14T09:16:35.630Z,1.40
2022-10-14T09:21:55.659Z,1.63
2022-10-14T09:27:15.860Z,1.43
2022-10-14T09:32:35.865Z,1.47
2022-10-14T09:37:55.992Z,1.60
2022-10-14T09:43:16.014Z,1.40
2022-10-14T09:48:36.252Z,1.77
2022-10-14T09:53:56.330Z,1.83
2022-10-14T09:59:16.495Z,1.43
2022-10-14T10:04:36.474Z,1.70
2022-10-14T10:09:56.638Z,1.60
2022-10-14T10:15:16.692Z,1.77
2022-10-14T10:20:36.887Z,1.60
2022-10-14T10:25:57.125Z,1.57
2022-10-14T10:31:17.346Z,1.50
2022-10-14T10:36:37.295Z,1.70
2022-10-14T10:41:57.428Z,1.87
2022-10-14T10:47:17.586Z,1.30
2022-10-14T10:52:37.792Z,1.40
2022-10-14T10:57:57.887Z,1.50
2022-10-14T11:03:18.079Z,1.60
2022-10-14T11:08:38.244Z,1.67
2022-10-14T11:13:58.370Z,1.73
2022-10-14T11:19:18.327Z,1.53
2022-10-14T11:24:38.623Z,2.03
2022-10-14T11:29:58.717Z,1.40
2022-10-14T11:35:18.926Z,1.40
2022-10-14T11:40:39.388Z,1.40
2022-10-14T11:45:59.532Z,1.80
2022-10-14T11:51:19.732Z,1.70
2022-10-14T11:56:39.862Z,1.40
2022-10-14T12:02:00.201Z,1.70
2022-10-14T12:07:20.320Z,1.30
2022-10-14T12:12:40.602Z,1.40
2022-10-14T12:18:00.724Z,1.60
2022-10-14T12:23:20.871Z,1.50
2022-10-14T12:28:41.361Z,1.50
2022-10-14T12:34:01.081Z,1.60
2022-10-14T12:39:21.346Z,1.50
2022-10-14T12:44:41.524Z,1.67
2022-10-14T12:50:01.587Z,2.30
2022-10-14T12:55:21.743Z,1.90
2022-10-14T13:00:41.860Z,1.57
2022-10-14T13:06:02.038Z,1.67
2022-10-14T13:11:22.170Z,1.53
2022-10-14T13:16:42.247Z,1.60
2022-10-14T13:22:02.358Z,1.73
2022-10-14T13:27:22.924Z,1.40
2022-10-14T13:32:43.100Z,1.80
2022-10-14T13:38:03.214Z,1.90
2022-10-14T13:43:23.260Z,1.70
2022-10-14T13:48:43.340Z,1.70
2022-10-14T13:54:03.444Z,2.10
2022-10-14T13:59:43.360Z,2.20
2022-10-14T14:05:03.415Z,2.17
2022-10-14T14:10:23.600Z,1.50
2022-10-14T14:15:43.834Z,1.53
2022-10-14T14:21:03.850Z,1.93
2022-10-14T14:26:24.031Z,2.10
2022-10-14T14:37:43.771Z,2.40
2022-10-14T14:43:04.353Z,2.57
2022-10-14T14:48:24.401Z,2.30
2022-10-14T14:53:44.577Z,2.57
2022-10-14T14:59:04.620Z,2.40
2022-10-14T15:04:24.824Z,2.60
2022-10-14T15:09:45.052Z,2.33
2022-10-14T15:15:05.215Z,3.03
2022-10-14T15:20:25.520Z,3.77
2022-10-14T15:25:45.582Z,3.70
2022-10-14T15:31:05.888Z,3.10
2022-10-14T15:36:25.915Z,3.50
2022-10-14T15:41:46.082Z,3.90
2022-10-14T15:47:06.156Z,4.60
2022-10-14T15:52:27.152Z,4.00
2022-10-14T15:57:47.636Z,3.77
2022-10-14T16:03:07.883Z,4.03
2022-10-14T16:08:28.076Z,3.60
2022-10-14T16:13:48.176Z,4.53
2022-10-14T16:19:08.287Z,4.03
2022-10-14T16:24:28.468Z,4.30
2022-10-14T16:29:48.515Z,3.20
2022-10-14T16:35:08.707Z,3.50
2022-10-14T16:40:30.926Z,4.10
2022-10-14T16:45:54.000Z,4.30
2022-10-14T16:51:14.206Z,2.90
2022-10-14T16:56:34.288Z,3.10
2022-10-14T17:01:54.555Z,3.13
2022-10-14T17:07:14.592Z,3.47
2022-10-14T17:12:34.656Z,3.60
2022-10-14T17:17:54.742Z,3.30
2022-10-14T17:23:14.814Z,3.33
2022-10-14T17:28:35.096Z,3.70
2022-10-14T17:33:55.194Z,4.60
2022-10-14T17:39:20.133Z,4.60
2022-10-14T17:44:45.978Z,4.40
2022-10-14T17:50:06.239Z,5.17
2022-10-14T17:55:26.251Z,4.00
2022-10-14T18:00:46.426Z,4.20
2022-10-14T18:06:06.512Z,3.50
2022-10-14T18:11:29.596Z,4.10
2022-10-14T18:16:52.378Z,4.27
2022-10-14T18:22:12.538Z,5.30
2022-10-14T18:27:32.747Z,3.83
2022-10-14T18:32:52.826Z,4.50
2022-10-14T18:38:13.093Z,3.97
2022-10-14T18:43:33.182Z,4.20
2022-10-14T18:48:53.372Z,4.80
2022-10-14T18:54:13.579Z,3.90
2022-10-14T18:59:33.664Z,4.00
2022-10-14T19:04:53.820Z,5.30
2022-10-14T19:10:14.006Z,5.27
2022-10-14T19:15:34.184Z,4.80
2022-10-14T19:20:54.192Z,3.90
2022-10-14T19:26:14.281Z,4.63
2022-10-14T19:31:34.336Z,4.40
2022-10-14T19:36:54.642Z,4.30
2022-10-14T19:42:14.673Z,5.13
2022-10-14T19:47:34.758Z,4.30
2022-10-14T19:52:54.792Z,4.10
2022-10-14T19:58:15.014Z,4.93
2022-10-14T20:03:35.026Z,3.60
2022-10-14T20:08:55.115Z,3.70
2022-10-14T20:14:15.301Z,3.70
2022-10-14T20:19:35.459Z,3.70
2022-10-14T20:24:55.487Z,3.43
2022-10-14T20:30:15.572Z,3.57
2022-10-14T20:35:35.602Z,3.90
2022-10-14T20:40:55.683Z,3.47
2022-10-14T20:46:15.746Z,3.70
2022-10-14T20:51:35.911Z,3.80
2022-10-14T20:56:55.922Z,3.43
2022-10-14T21:02:16.110Z,3.40
2022-10-14T21:07:36.099Z,3.57
2022-10-14T21:12:56.281Z,3.40
2022-10-14T21:18:16.368Z,3.27
2022-10-14T21:23:36.572Z,3.60
2022-10-14T21:28:56.758Z,3.50
2022-10-14T21:34:16.921Z,3.20
2022-10-14T21:39:37.042Z,2.90
2022-10-14T21:44:57.156Z,3.60
2022-10-14T21:50:17.264Z,3.10
2022-10-14T21:55:37.262Z,3.50
2022-10-14T22:00:57.497Z,3.00
2022-10-14T22:06:17.591Z,3.10
2022-10-14T22:11:37.676Z,3.60
2022-10-14T22:16:58.032Z,3.20
2022-10-14T22:22:18.009Z,3.00
2022-10-14T22:27:38.267Z,3.00
2022-10-14T22:32:58.474Z,2.90
2022-10-14T22:38:18.540Z,3.13
2022-10-14T22:43:38.680Z,2.80
2022-10-14T22:48:58.839Z,2.77
2022-10-14T22:54:19.000Z,3.47
2022-10-14T22:59:39.039Z,2.87
2022-10-14T23:04:59.169Z,3.03
2022-10-14T23:10:19.255Z,3.30
2022-10-14T23:15:39.479Z,3.00
2022-10-14T23:20:59.531Z,2.90
2022-10-14T23:26:19.646Z,3.00
2022-10-14T23:31:39.829Z,3.27
2022-10-14T23:36:59.893Z,2.63
2022-10-14T23:42:19.999Z,3.10
2022-10-14T23:47:40.136Z,3.10
2022-10-14T23:53:00.359Z,2.83
2022-10-14T23:58:20.623Z,2.80
